Grangerland, Texas
Current Conditions -  °F | °C
As of 5:53 PM on Monday 24 Nov 2014 (Local Time) from KCXO Reporting Station
Clear Clear  
Wind Chill: 53°   Ceiling: Unl
Heat Index: 53°   Visibility: 10mi
Dew Point: 45°   Wind: 0mph
Humidity: 74%   Direction: NA
Pressure: 30.05"   Gusts: NA
Location:  30.2363°N, 95.376°W
Report Text: KCXO 242353Z 00000KT 10SM CLR 12/07 A3005 RMK AO2 SLP175 T01170072 10167 20117 53005
Loading
Personal Weather Stations






























Interactive Weather Map New forecast layout! Learn more

10-Day Weather Forecast

Advertisements
Track Severe Weather on mobile